sensor_id;sensor_type;location;lat;lon;timestamp;temperature;humidity
9943;DHT22;5010;45.080;7.634;2024-03-02T00:01:16;8.30;1.00
9943;DHT22;5010;45.080;7.634;2024-03-02T00:03:44;8.40;1.00
9943;DHT22;5010;45.080;7.634;2024-03-02T00:06:11;8.40;1.00
9943;DHT22;5010;45.080;7.634;2024-03-02T00:08:39;8.50;1.00
9943;DHT22;5010;45.080;7.634;2024-03-02T00:11:07;8.50;1.00
9943;DHT22;5010;45.080;7.634;2024-03-02T00:13:36;8.50;1.00
9943;DHT22;5010;45.080;7.634;2024-03-02T00:16:05;8.50;1.00
9943;DHT22;5010;45.080;7.634;2024-03-02T00:18:35;8.60;1.00
9943;DHT22;5010;45.080;7.634;2024-03-02T00:21:03;8.60;1.00
9943;DHT22;5010;45.080;7.634;2024-03-02T00:23:36;8.60;1.00
9943;DHT22;5010;45.080;7.634;2024-03-02T00:26:06;8.70;1.00
9943;DHT22;5010;45.080;7.634;2024-03-02T00:28:35;8.70;1.00
9943;DHT22;5010;45.080;7.634;2024-03-02T00:31:05;8.70;1.00
9943;DHT22;5010;45.080;7.634;2024-03-02T00:33:35;8.70;1.00
9943;DHT22;5010;45.080;7.634;2024-03-02T00:36:05;8.70;1.00
9943;DHT22;5010;45.080;7.634;2024-03-02T00:38:34;8.80;1.00
9943;DHT22;5010;45.080;7.634;2024-03-02T00:41:16;8.80;1.00
9943;DHT22;5010;45.080;7.634;2024-03-02T00:43:47;8.70;1.00
9943;DHT22;5010;45.080;7.634;2024-03-02T00:46:18;8.70;1.00
9943;DHT22;5010;45.080;7.634;2024-03-02T00:48:54;8.60;1.00
9943;DHT22;5010;45.080;7.634;2024-03-02T00:51:23;8.60;1.00
9943;DHT22;5010;45.080;7.634;2024-03-02T00:53:51;8.70;1.00
9943;DHT22;5010;45.080;7.634;2024-03-02T00:56:21;8.70;1.00
9943;DHT22;5010;45.080;7.634;2024-03-02T00:58:49;8.70;1.00
9943;DHT22;5010;45.080;7.634;2024-03-02T01:01:16;8.70;1.00
9943;DHT22;5010;45.080;7.634;2024-03-02T01:03:44;8.80;1.00
9943;DHT22;5010;45.080;7.634;2024-03-02T01:06:13;8.80;1.00
9943;DHT22;5010;45.080;7.634;2024-03-02T01:08:40;8.80;1.00
9943;DHT22;5010;45.080;7.634;2024-03-02T01:11:08;8.70;1.00
9943;DHT22;5010;45.080;7.634;2024-03-02T01:13:36;8.60;1.00
9943;DHT22;5010;45.080;7.634;2024-03-02T01:16:04;8.60;1.00
9943;DHT22;5010;45.080;7.634;2024-03-02T01:18:32;8.60;1.00
9943;DHT22;5010;45.080;7.634;2024-03-02T01:20:59;8.60;1.00
9943;DHT22;5010;45.080;7.634;2024-03-02T01:23:28;8.50;1.00
9943;DHT22;5010;45.080;7.634;2024-03-02T01:25:56;8.40;1.00
9943;DHT22;5010;45.080;7.634;2024-03-02T01:28:23;8.30;1.00
9943;DHT22;5010;45.080;7.634;2024-03-02T01:30:51;8.30;1.00
9943;DHT22;5010;45.080;7.634;2024-03-02T01:33:19;8.30;1.00
9943;DHT22;5010;45.080;7.634;2024-03-02T01:35:47;8.30;1.00
9943;DHT22;5010;45.080;7.634;2024-03-02T01:38:14;8.40;1.00
9943;DHT22;5010;45.080;7.634;2024-03-02T01:40:43;8.40;1.00
9943;DHT22;5010;45.080;7.634;2024-03-02T01:43:11;8.40;1.00
9943;DHT22;5010;45.080;7.634;2024-03-02T01:45:39;8.30;1.00
9943;DHT22;5010;45.080;7.634;2024-03-02T01:48:07;8.20;1.00
9943;DHT22;5010;45.080;7.634;2024-03-02T01:50:35;8.10;1.00
9943;DHT22;5010;45.080;7.634;2024-03-02T01:53:03;8.00;1.00
9943;DHT22;5010;45.080;7.634;2024-03-02T01:55:31;7.90;1.00
9943;DHT22;5010;45.080;7.634;2024-03-02T01:58:02;7.90;1.00
9943;DHT22;5010;45.080;7.634;2024-03-02T02:00:30;8.00;1.00
9943;DHT22;5010;45.080;7.634;2024-03-02T02:02:58;8.00;1.00
9943;DHT22;5010;45.080;7.634;2024-03-02T02:05:25;8.00;1.00
9943;DHT22;5010;45.080;7.634;2024-03-02T02:07:53;7.90;1.00
9943;DHT22;5010;45.080;7.634;2024-03-02T02:10:21;7.80;1.00
9943;DHT22;5010;45.080;7.634;2024-03-02T02:12:48;7.80;1.00
9943;DHT22;5010;45.080;7.634;2024-03-02T02:15:24;7.70;1.00
9943;DHT22;5010;45.080;7.634;2024-03-02T02:17:51;7.80;1.00
9943;DHT22;5010;45.080;7.634;2024-03-02T02:20:19;7.90;1.00
9943;DHT22;5010;45.080;7.634;2024-03-02T02:22:58;7.90;1.00
9943;DHT22;5010;45.080;7.634;2024-03-02T02:25:26;8.00;1.00
9943;DHT22;5010;45.080;7.634;2024-03-02T02:27:53;8.00;1.00
9943;DHT22;5010;45.080;7.634;2024-03-02T02:30:22;8.00;1.00
9943;DHT22;5010;45.080;7.634;2024-03-02T02:32:50;8.00;1.00
9943;DHT22;5010;45.080;7.634;2024-03-02T02:35:17;7.90;1.00
9943;DHT22;5010;45.080;7.634;2024-03-02T02:37:46;7.90;1.00
9943;DHT22;5010;45.080;7.634;2024-03-02T02:40:15;7.90;1.00
9943;DHT22;5010;45.080;7.634;2024-03-02T02:42:44;8.00;1.00
9943;DHT22;5010;45.080;7.634;2024-03-02T02:45:12;8.00;1.00
9943;DHT22;5010;45.080;7.634;2024-03-02T02:47:40;7.90;1.00
9943;DHT22;5010;45.080;7.634;2024-03-02T02:50:09;7.80;1.00
9943;DHT22;5010;45.080;7.634;2024-03-02T02:52:38;7.70;1.00
9943;DHT22;5010;45.080;7.634;2024-03-02T02:55:07;7.60;1.00
9943;DHT22;5010;45.080;7.634;2024-03-02T02:57:38;7.70;1.00
9943;DHT22;5010;45.080;7.634;2024-03-02T03:00:09;7.80;1.00
9943;DHT22;5010;45.080;7.634;2024-03-02T03:02:40;7.90;1.00
9943;DHT22;5010;45.080;7.634;2024-03-02T03:05:09;8.00;1.00
9943;DHT22;5010;45.080;7.634;2024-03-02T03:07:38;8.00;1.00
9943;DHT22;5010;45.080;7.634;2024-03-02T03:10:07;7.90;1.00
9943;DHT22;5010;45.080;7.634;2024-03-02T03:12:36;7.90;1.00
9943;DHT22;5010;45.080;7.634;2024-03-02T03:15:04;7.90;1.00
9943;DHT22;5010;45.080;7.634;2024-03-02T03:17:32;8.00;1.00
9943;DHT22;5010;45.080;7.634;2024-03-02T03:20:00;8.10;1.00
9943;DHT22;5010;45.080;7.634;2024-03-02T03:22:30;8.10;1.00
9943;DHT22;5010;45.080;7.634;2024-03-02T03:24:57;8.00;1.00
9943;DHT22;5010;45.080;7.634;2024-03-02T03:27:25;7.90;1.00
9943;DHT22;5010;45.080;7.634;2024-03-02T03:29:54;7.90;1.00
9943;DHT22;5010;45.080;7.634;2024-03-02T03:32:21;7.90;1.00
9943;DHT22;5010;45.080;7.634;2024-03-02T03:34:49;7.90;1.00
9943;DHT22;5010;45.080;7.634;2024-03-02T03:37:16;7.90;1.00
9943;DHT22;5010;45.080;7.634;2024-03-02T03:39:44;7.90;1.00
9943;DHT22;5010;45.080;7.634;2024-03-02T03:42:12;7.90;1.00
9943;DHT22;5010;45.080;7.634;2024-03-02T03:44:39;7.80;1.00
9943;DHT22;5010;45.080;7.634;2024-03-02T03:47:09;7.70;1.00
9943;DHT22;5010;45.080;7.634;2024-03-02T03:49:36;7.70;1.00
9943;DHT22;5010;45.080;7.634;2024-03-02T03:52:04;7.70;1.00
9943;DHT22;5010;45.080;7.634;2024-03-02T03:54:32;7.70;1.00
9943;DHT22;5010;45.080;7.634;2024-03-02T03:56:59;7.80;1.00
9943;DHT22;5010;45.080;7.634;2024-03-02T03:59:27;7.70;1.00
9943;DHT22;5010;45.080;7.634;2024-03-02T04:01:54;7.70;1.00
9943;DHT22;5010;45.080;7.634;2024-03-02T04:04:23;7.70;1.00
9943;DHT22;5010;45.080;7.634;2024-03-02T04:06:51;7.70;1.00
9943;DHT22;5010;45.080;7.634;2024-03-02T04:09:18;7.70;1.00
9943;DHT22;5010;45.080;7.634;2024-03-02T04:11:46;7.70;1.00
9943;DHT22;5010;45.080;7.634;2024-03-02T04:14:13;7.70;1.00
9943;DHT22;5010;45.080;7.634;2024-03-02T04:16:41;7.70;1.00
9943;DHT22;5010;45.080;7.634;2024-03-02T04:19:09;7.70;1.00
9943;DHT22;5010;45.080;7.634;2024-03-02T04:21:38;7.70;1.00
9943;DHT22;5010;45.080;7.634;2024-03-02T04:24:06;7.80;1.00
9943;DHT22;5010;45.080;7.634;2024-03-02T04:26:34;7.90;1.00
9943;DHT22;5010;45.080;7.634;2024-03-02T04:29:01;7.90;1.00
9943;DHT22;5010;45.080;7.634;2024-03-02T04:31:29;7.80;1.00
9943;DHT22;5010;45.080;7.634;2024-03-02T04:33:56;7.90;1.00
9943;DHT22;5010;45.080;7.634;2024-03-02T04:36:24;8.00;1.00
9943;DHT22;5010;45.080;7.634;2024-03-02T04:38:53;8.10;1.00
9943;DHT22;5010;45.080;7.634;2024-03-02T04:41:20;8.00;1.00
9943;DHT22;5010;45.080;7.634;2024-03-02T04:43:48;8.00;1.00
9943;DHT22;5010;45.080;7.634;2024-03-02T04:46:15;8.10;1.00
9943;DHT22;5010;45.080;7.634;2024-03-02T04:48:42;8.10;1.00
9943;DHT22;5010;45.080;7.634;2024-03-02T04:51:10;8.20;1.00
9943;DHT22;5010;45.080;7.634;2024-03-02T04:53:37;8.20;1.00
9943;DHT22;5010;45.080;7.634;2024-03-02T04:56:07;8.30;1.00
9943;DHT22;5010;45.080;7.634;2024-03-02T04:58:51;8.30;1.00
9943;DHT22;5010;45.080;7.634;2024-03-02T09:04:29;8.90;1.00
9943;DHT22;5010;45.080;7.634;2024-03-02T11:06:33;9.50;1.00
9943;DHT22;5010;45.080;7.634;2024-03-02T11:09:06;9.50;1.00
9943;DHT22;5010;45.080;7.634;2024-03-02T11:11:40;9.50;1.00
9943;DHT22;5010;45.080;7.634;2024-03-02T11:24:32;10.10;1.00
9943;DHT22;5010;45.080;7.634;2024-03-02T11:27:04;10.20;1.00
9943;DHT22;5010;45.080;7.634;2024-03-02T11:29:45;10.20;1.00
9943;DHT22;5010;45.080;7.634;2024-03-02T11:32:17;10.20;1.00
9943;DHT22;5010;45.080;7.634;2024-03-02T11:34:47;10.20;1.00
9943;DHT22;5010;45.080;7.634;2024-03-02T11:37:16;10.30;1.00
9943;DHT22;5010;45.080;7.634;2024-03-02T11:39:45;10.40;1.00
9943;DHT22;5010;45.080;7.634;2024-03-02T11:42:14;10.40;1.00
9943;DHT22;5010;45.080;7.634;2024-03-02T12:08:17;10.10;1.00
9943;DHT22;5010;45.080;7.634;2024-03-02T12:10:56;10.10;1.00
9943;DHT22;5010;45.080;7.634;2024-03-02T12:13:24;10.10;1.00
9943;DHT22;5010;45.080;7.634;2024-03-02T12:15:54;10.00;1.00
9943;DHT22;5010;45.080;7.634;2024-03-02T12:18:23;10.00;1.00
9943;DHT22;5010;45.080;7.634;2024-03-02T12:20:52;10.00;1.00
9943;DHT22;5010;45.080;7.634;2024-03-02T12:23:25;10.10;1.00
9943;DHT22;5010;45.080;7.634;2024-03-02T12:25:52;10.20;1.00
9943;DHT22;5010;45.080;7.634;2024-03-02T13:41:46;9.60;1.00
9943;DHT22;5010;45.080;7.634;2024-03-02T13:44:18;9.60;1.00
9943;DHT22;5010;45.080;7.634;2024-03-02T13:46:46;9.60;1.00
9943;DHT22;5010;45.080;7.634;2024-03-02T13:49:14;9.70;1.00
9943;DHT22;5010;45.080;7.634;2024-03-02T13:51:41;9.70;1.00
9943;DHT22;5010;45.080;7.634;2024-03-02T13:54:10;9.70;1.00
9943;DHT22;5010;45.080;7.634;2024-03-02T22:36:39;8.20;1.00
9943;DHT22;5010;45.080;7.634;2024-03-02T22:39:07;8.20;1.00
9943;DHT22;5010;45.080;7.634;2024-03-02T22:41:35;8.20;1.00
9943;DHT22;5010;45.080;7.634;2024-03-02T22:44:02;8.10;1.00
9943;DHT22;5010;45.080;7.634;2024-03-02T22:46:29;8.10;1.00
9943;DHT22;5010;45.080;7.634;2024-03-02T22:48:57;8.10;1.00
9943;DHT22;5010;45.080;7.634;2024-03-02T22:51:27;8.20;1.00
9943;DHT22;5010;45.080;7.634;2024-03-02T22:53:56;8.20;1.00
9943;DHT22;5010;45.080;7.634;2024-03-02T22:56:23;8.20;1.00
9943;DHT22;5010;45.080;7.634;2024-03-02T22:58:50;8.20;1.00
9943;DHT22;5010;45.080;7.634;2024-03-02T23:01:18;8.20;1.00
9943;DHT22;5010;45.080;7.634;2024-03-02T23:03:47;8.20;1.00
9943;DHT22;5010;45.080;7.634;2024-03-02T23:06:14;8.20;1.00
9943;DHT22;5010;45.080;7.634;2024-03-02T23:08:41;8.30;1.00
9943;DHT22;5010;45.080;7.634;2024-03-02T23:11:10;8.30;1.00
9943;DHT22;5010;45.080;7.634;2024-03-02T23:13:38;8.30;1.00
9943;DHT22;5010;45.080;7.634;2024-03-02T23:16:05;8.30;1.00
9943;DHT22;5010;45.080;7.634;2024-03-02T23:18:33;8.20;1.00
9943;DHT22;5010;45.080;7.634;2024-03-02T23:21:00;8.10;1.00
9943;DHT22;5010;45.080;7.634;2024-03-02T23:23:27;8.20;1.00
9943;DHT22;5010;45.080;7.634;2024-03-02T23:25:55;8.10;1.00
9943;DHT22;5010;45.080;7.634;2024-03-02T23:28:24;8.10;1.00
9943;DHT22;5010;45.080;7.634;2024-03-02T23:30:51;8.00;1.00
9943;DHT22;5010;45.080;7.634;2024-03-02T23:33:19;7.90;1.00
9943;DHT22;5010;45.080;7.634;2024-03-02T23:35:46;7.90;1.00
9943;DHT22;5010;45.080;7.634;2024-03-02T23:38:14;7.90;1.00
9943;DHT22;5010;45.080;7.634;2024-03-02T23:40:40;7.90;1.00
9943;DHT22;5010;45.080;7.634;2024-03-02T23:43:30;7.90;1.00
9943;DHT22;5010;45.080;7.634;2024-03-02T23:45:57;7.80;1.00
9943;DHT22;5010;45.080;7.634;2024-03-02T23:48:25;7.80;1.00
9943;DHT22;5010;45.080;7.634;2024-03-02T23:50:52;7.90;1.00
9943;DHT22;5010;45.080;7.634;2024-03-02T23:53:19;7.80;1.00
9943;DHT22;5010;45.080;7.634;2024-03-02T23:55:47;7.80;1.00
9943;DHT22;5010;45.080;7.634;2024-03-02T23:58:14;7.80;1.00
